Time,TemperatureF,DewpointF,PressureIn,WindDirection,WindDirectionDegrees,WindSpeedMPH,WindSpeedGustMPH,Humidity,HourlyPrecipIn,Conditions,Clouds,dailyrainin,SoftwareType,DateUTC
2013-06-12 00:00:00,62.1,60.9,29.96,West,260,0.0,0.0,96,0.00,RA,,0.00,WeatherDisplay:10.37,2013-06-12 04:00:00,
2013-06-12 00:01:00,62.2,61.0,29.96,West,260,0.0,0.0,96,0.00,RA,,0.00,WeatherDisplay:10.37,2013-06-12 04:01:00,
2013-06-12 00:06:00,62.2,61.0,29.97,West,260,0.0,0.0,96,0.00,RA,,0.00,WeatherDisplay:10.37,2013-06-12 04:06:00,
2013-06-12 00:11:00,62.1,60.9,29.97,West,260,0.0,0.0,96,0.00,,,0.00,WeatherDisplay:10.37,2013-06-12 04:11:00,
2013-06-12 00:16:00,62.1,60.9,29.97,West,260,0.0,0.0,96,0.00,,,0.00,WeatherDisplay:10.37,2013-06-12 04:16:00,
2013-06-12 00:22:00,61.9,60.7,29.97,West,260,0.0,0.0,96,0.00,,,0.00,WeatherDisplay:10.37,2013-06-12 04:22:00,
2013-06-12 00:27:00,61.8,60.6,29.98,West,260,0.0,0.0,96,0.00,,,0.00,WeatherDisplay:10.37,2013-06-12 04:27:00,
2013-06-12 00:32:00,61.8,60.6,29.98,West,260,0.0,0.0,96,0.00,,,0.00,WeatherDisplay:10.37,2013-06-12 04:32:00,
2013-06-12 00:37:00,61.7,60.5,29.98,West,260,0.0,0.0,96,0.00,,,0.00,WeatherDisplay:10.37,2013-06-12 04:37:00,
2013-06-12 00:42:00,61.6,60.4,29.98,West,260,0.0,0.0,96,0.00,,,0.00,WeatherDisplay:10.37,2013-06-12 04:42:00,
2013-06-12 00:47:00,61.6,60.7,29.98,West,260,0.0,0.0,97,0.00,,,0.00,WeatherDisplay:10.37,2013-06-12 04:47:00,
2013-06-12 00:52:00,61.7,60.8,29.99,West,260,0.0,0.0,97,0.00,,,0.00,WeatherDisplay:10.37,2013-06-12 04:52:00,
2013-06-12 00:57:00,61.9,61.0,29.98,West,260,1.2,0.0,97,0.00,,,0.00,WeatherDisplay:10.37,2013-06-12 04:57:00,
2013-06-12 01:02:00,61.9,61.0,29.98,West,261,0.0,0.0,97,0.00,,,0.00,WeatherDisplay:10.37,2013-06-12 05:02:00,
2013-06-12 01:07:00,62.0,61.1,29.98,West,262,0.0,0.0,97,0.00,,,0.00,WeatherDisplay:10.37,2013-06-12 05:07:00,
2013-06-12 01:12:00,62.0,61.1,29.99,West,262,0.0,0.0,97,0.00,,,0.00,WeatherDisplay:10.37,2013-06-12 05:12:00,
2013-06-12 01:17:00,62.0,61.1,29.97,West,260,0.0,0.0,97,0.00,,,0.00,WeatherDisplay:10.37,2013-06-12 05:17:00,
2013-06-12 01:22:00,62.0,61.1,29.97,West,260,0.0,0.0,97,0.00,,,0.00,WeatherDisplay:10.37,2013-06-12 05:22:00,
2013-06-12 01:27:00,62.0,61.1,29.97,West,260,0.0,0.0,97,0.00,,,0.00,WeatherDisplay:10.37,2013-06-12 05:27:00,
2013-06-12 01:32:00,61.8,60.9,29.96,WNW,283,2.3,2.3,97,0.00,,,0.00,WeatherDisplay:10.37,2013-06-12 05:32:00,
2013-06-12 01:37:00,61.8,60.9,29.96,WNW,283,1.2,0.0,97,0.00,,,0.00,WeatherDisplay:10.37,2013-06-12 05:37:00,
2013-06-12 01:42:00,61.7,60.8,29.97,WNW,283,1.2,1.2,97,0.00,,,0.00,WeatherDisplay:10.37,2013-06-12 05:42:00,
2013-06-12 01:47:00,61.6,60.7,29.97,WNW,283,0.0,0.0,97,0.00,,,0.00,WeatherDisplay:10.37,2013-06-12 05:47:00,
2013-06-12 01:52:00,61.6,60.7,29.97,WNW,283,0.0,0.0,97,0.00,,,0.00,WeatherDisplay:10.37,2013-06-12 05:52:00,
2013-06-12 01:57:00,61.5,60.6,29.97,WNW,283,0.0,0.0,97,0.00,,,0.00,WeatherDisplay:10.37,2013-06-12 05:57:00,
2013-06-12 02:02:00,61.4,60.5,29.97,WNW,282,0.0,0.0,97,0.00,,,0.00,WeatherDisplay:10.37,2013-06-12 06:02:00,
2013-06-12 02:07:00,61.3,60.4,29.97,WNW,282,0.0,0.0,97,0.00,,,0.00,WeatherDisplay:10.37,2013-06-12 06:07:00,
2013-06-12 02:12:00,61.3,60.4,29.97,WNW,283,0.0,0.0,97,0.00,,,0.00,WeatherDisplay:10.37,2013-06-12 06:12:00,
2013-06-12 02:17:00,61.3,60.4,29.97,WNW,282,0.0,0.0,97,0.00,,,0.00,WeatherDisplay:10.37,2013-06-12 06:17:00,
2013-06-12 02:22:00,61.3,60.4,29.97,WNW,282,0.0,0.0,97,0.00,,,0.00,WeatherDisplay:10.37,2013-06-12 06:22:00,
2013-06-12 02:27:00,61.3,60.4,29.97,WNW,283,0.0,0.0,97,0.00,,,0.00,WeatherDisplay:10.37,2013-06-12 06:27:00,
2013-06-12 02:32:00,61.4,60.5,29.97,WNW,283,0.0,0.0,97,0.00,,,0.00,WeatherDisplay:10.37,2013-06-12 06:32:00,
2013-06-12 02:37:00,61.3,60.4,29.97,WNW,283,0.0,0.0,97,0.00,,,0.00,WeatherDisplay:10.37,2013-06-12 06:37:00,
2013-06-12 02:42:00,61.4,60.5,29.97,WNW,283,0.0,0.0,97,0.00,,,0.00,WeatherDisplay:10.37,2013-06-12 06:42:00,
2013-06-12 02:47:00,61.4,60.5,29.96,WNW,283,0.0,0.0,97,0.00,,,0.00,WeatherDisplay:10.37,2013-06-12 06:47:00,
2013-06-12 02:52:00,61.4,60.5,29.97,WNW,283,0.0,0.0,97,0.00,,,0.00,WeatherDisplay:10.37,2013-06-12 06:52:00,
2013-06-12 02:57:00,61.4,60.5,29.97,WNW,283,0.0,0.0,97,0.00,,,0.00,WeatherDisplay:10.37,2013-06-12 06:57:00,
2013-06-12 03:02:00,61.4,60.5,29.97,WNW,283,0.0,0.0,97,0.00,,,0.00,WeatherDisplay:10.37,2013-06-12 07:02:00,
2013-06-12 03:07:00,61.5,60.6,29.97,WNW,282,0.0,0.0,97,0.00,,,0.00,WeatherDisplay:10.37,2013-06-12 07:07:00,
2013-06-12 03:12:00,61.5,60.6,29.97,WNW,282,0.0,0.0,97,0.00,,,0.00,WeatherDisplay:10.37,2013-06-12 07:12:00,
2013-06-12 03:17:00,61.5,60.6,29.97,WNW,283,0.0,0.0,97,0.00,,,0.00,WeatherDisplay:10.37,2013-06-12 07:17:00,
2013-06-12 03:22:00,61.5,60.6,29.97,WNW,283,0.0,0.0,97,0.00,,,0.00,WeatherDisplay:10.37,2013-06-12 07:22:00,
2013-06-12 03:27:00,61.4,60.5,29.97,WNW,282,0.0,0.0,97,0.00,,,0.00,WeatherDisplay:10.37,2013-06-12 07:27:00,
2013-06-12 03:32:00,61.2,60.3,29.97,WNW,283,0.0,0.0,97,0.00,,,0.00,WeatherDisplay:10.37,2013-06-12 07:32:00,
2013-06-12 03:37:00,61.1,60.2,29.97,WNW,283,0.0,0.0,97,0.00,,,0.00,WeatherDisplay:10.37,2013-06-12 07:37:00,
2013-06-12 03:42:00,61.0,60.1,29.97,WNW,283,0.0,0.0,97,0.00,,,0.00,WeatherDisplay:10.37,2013-06-12 07:42:00,
2013-06-12 03:47:00,61.0,60.1,29.97,WNW,283,0.0,0.0,97,0.00,,,0.00,WeatherDisplay:10.37,2013-06-12 07:47:00,
2013-06-12 03:53:00,60.9,60.0,29.98,WNW,283,0.0,0.0,97,0.00,,,0.00,WeatherDisplay:10.37,2013-06-12 07:53:00,
2013-06-12 03:58:00,60.8,59.9,29.98,WNW,283,0.0,0.0,97,0.00,,,0.00,WeatherDisplay:10.37,2013-06-12 07:58:00,
2013-06-12 04:03:00,60.8,60.2,29.98,WNW,283,0.0,0.0,98,0.00,,,0.00,WeatherDisplay:10.37,2013-06-12 08:03:00,
2013-06-12 04:08:00,60.8,60.2,29.97,WNW,283,0.0,0.0,98,0.00,,,0.00,WeatherDisplay:10.37,2013-06-12 08:08:00,
2013-06-12 04:13:00,60.8,60.2,29.98,WNW,282,0.0,0.0,98,0.00,,,0.00,WeatherDisplay:10.37,2013-06-12 08:13:00,
2013-06-12 04:18:00,60.8,59.9,29.98,WNW,282,0.0,0.0,97,0.00,,,0.00,WeatherDisplay:10.37,2013-06-12 08:18:00,
2013-06-12 04:23:00,60.7,59.8,29.98,WNW,283,0.0,0.0,97,0.00,,,0.00,WeatherDisplay:10.37,2013-06-12 08:23:00,
2013-06-12 04:28:00,60.7,59.8,29.98,WNW,283,0.0,0.0,97,0.00,,,0.00,WeatherDisplay:10.37,2013-06-12 08:28:00,
2013-06-12 04:33:00,60.7,60.1,29.98,WNW,283,0.0,0.0,98,0.00,,,0.00,WeatherDisplay:10.37,2013-06-12 08:33:00,
2013-06-12 04:38:00,60.7,60.1,29.98,WNW,282,0.0,0.0,98,0.00,,,0.00,WeatherDisplay:10.37,2013-06-12 08:38:00,
2013-06-12 04:43:00,60.6,59.7,29.98,WNW,282,0.0,0.0,97,0.00,,,0.00,WeatherDisplay:10.37,2013-06-12 08:43:00,
2013-06-12 04:48:00,60.6,60.0,29.98,WNW,283,0.0,0.0,98,0.00,,,0.00,WeatherDisplay:10.37,2013-06-12 08:48:00,
2013-06-12 04:53:00,60.6,60.0,29.98,WNW,283,0.0,0.0,98,0.00,,,0.00,WeatherDisplay:10.37,2013-06-12 08:53:00,
2013-06-12 04:58:00,60.6,60.0,29.98,WNW,283,0.0,0.0,98,0.00,,,0.00,WeatherDisplay:10.37,2013-06-12 08:58:00,
2013-06-12 05:03:00,60.6,60.0,29.99,WNW,283,0.0,0.0,98,0.00,,,0.00,WeatherDisplay:10.37,2013-06-12 09:03:00,
2013-06-12 05:08:00,60.5,59.9,29.99,WNW,282,0.0,0.0,98,0.00,,,0.00,WeatherDisplay:10.37,2013-06-12 09:08:00,
2013-06-12 05:13:00,60.5,59.9,29.99,WNW,283,0.0,0.0,98,0.00,,,0.00,WeatherDisplay:10.37,2013-06-12 09:13:00,
2013-06-12 05:18:00,60.5,59.9,29.99,WNW,282,0.0,0.0,98,0.00,,,0.00,WeatherDisplay:10.37,2013-06-12 09:18:00,
2013-06-12 05:23:00,60.6,60.0,29.99,WNW,282,0.0,0.0,98,0.00,,,0.00,WeatherDisplay:10.37,2013-06-12 09:23:00,
2013-06-12 05:28:00,60.7,60.1,29.99,WNW,282,0.0,0.0,98,0.00,,,0.00,WeatherDisplay:10.37,2013-06-12 09:28:00,
2013-06-12 05:33:00,61.0,60.4,29.99,West,275,0.0,0.0,98,0.00,,,0.00,WeatherDisplay:10.37,2013-06-12 09:33:00,
2013-06-12 05:38:00,61.1,60.5,29.99,West,276,0.0,0.0,98,0.00,,,0.00,WeatherDisplay:10.37,2013-06-12 09:38:00,
2013-06-12 05:43:00,61.1,60.5,29.99,West,276,0.0,0.0,98,0.00,,,0.00,WeatherDisplay:10.37,2013-06-12 09:43:00,
2013-06-12 05:48:00,61.2,60.6,29.99,West,275,0.0,0.0,98,0.00,,,0.00,WeatherDisplay:10.37,2013-06-12 09:48:00,
2013-06-12 05:53:00,61.2,60.6,29.99,West,275,0.0,0.0,98,0.00,,,0.00,WeatherDisplay:10.37,2013-06-12 09:53:00,
2013-06-12 05:58:00,61.4,60.8,29.99,West,276,0.0,0.0,98,0.00,,,0.00,WeatherDisplay:10.37,2013-06-12 09:58:00,
2013-06-12 06:03:00,61.5,60.9,30.00,West,276,0.0,0.0,98,0.00,CLR,,0.00,WeatherDisplay:10.37,2013-06-12 10:03:00,
2013-06-12 06:08:00,61.7,61.1,30.00,West,276,0.0,0.0,98,0.00,CLR,,0.00,WeatherDisplay:10.37,2013-06-12 10:08:00,
2013-06-12 06:13:00,61.9,61.3,30.00,West,276,0.0,0.0,98,0.00,CLR,,0.00,WeatherDisplay:10.37,2013-06-12 10:13:00,
2013-06-12 06:18:00,62.0,61.4,30.00,West,275,0.0,0.0,98,0.00,CLR,,0.00,WeatherDisplay:10.37,2013-06-12 10:18:00,
2013-06-12 06:23:00,62.2,61.6,30.00,West,276,0.0,0.0,98,0.00,CLR,,0.00,WeatherDisplay:10.37,2013-06-12 10:23:00,
2013-06-12 06:28:00,62.2,61.6,30.00,West,276,0.0,0.0,98,0.00,CLR,,0.00,WeatherDisplay:10.37,2013-06-12 10:28:00,
2013-06-12 06:33:00,62.1,61.5,30.00,West,275,0.0,0.0,98,0.00,CLR,,0.00,WeatherDisplay:10.37,2013-06-12 10:33:00,
2013-06-12 06:38:00,62.2,61.6,30.00,West,276,0.0,0.0,98,0.00,CLR,,0.00,WeatherDisplay:10.37,2013-06-12 10:38:00,
2013-06-12 06:43:00,62.3,61.7,30.00,West,275,0.0,0.0,98,0.00,CLR,,0.00,WeatherDisplay:10.37,2013-06-12 10:43:00,
2013-06-12 06:48:00,62.4,61.8,30.00,West,276,0.0,0.0,98,0.00,CLR,,0.00,WeatherDisplay:10.37,2013-06-12 10:48:00,
2013-06-12 06:53:00,62.5,61.9,30.00,West,275,0.0,0.0,98,0.00,CLR,,0.00,WeatherDisplay:10.37,2013-06-12 10:53:00,
2013-06-12 06:58:00,62.8,62.2,30.00,West,278,1.0,1.0,98,0.00,CLR,,0.00,WeatherDisplay:10.37,2013-06-12 10:58:00,
2013-06-12 07:03:00,63.0,62.4,30.00,West,281,1.2,1.2,98,0.00,CLR,,0.00,WeatherDisplay:10.37,2013-06-12 11:03:00,
2013-06-12 07:08:00,63.1,62.5,30.00,West,281,0.0,0.0,98,0.00,CLR,,0.00,WeatherDisplay:10.37,2013-06-12 11:08:00,
2013-06-12 07:13:00,63.2,62.3,30.00,West,281,1.2,1.2,97,0.00,CLR,,0.00,WeatherDisplay:10.37,2013-06-12 11:13:00,
2013-06-12 07:18:00,63.3,62.4,30.00,West,281,0.0,0.0,97,0.00,CLR,,0.00,WeatherDisplay:10.37,2013-06-12 11:18:00,
2013-06-12 07:23:00,63.4,62.5,30.01,West,281,0.0,0.0,97,0.00,CLR,,0.00,WeatherDisplay:10.37,2013-06-12 11:23:00,
2013-06-12 07:28:00,63.5,62.6,30.01,West,281,0.0,0.0,97,0.00,CLR,,0.00,WeatherDisplay:10.37,2013-06-12 11:28:00,
2013-06-12 07:33:00,63.6,62.7,30.01,West,281,1.2,0.0,97,0.00,CLR,,0.00,WeatherDisplay:10.37,2013-06-12 11:33:00,
2013-06-12 07:38:00,63.8,62.9,30.01,West,281,0.0,0.0,97,0.00,CLR,,0.00,WeatherDisplay:10.37,2013-06-12 11:38:00,
2013-06-12 07:43:00,63.9,63.0,30.01,West,281,0.0,0.0,97,0.00,CLR,,0.00,WeatherDisplay:10.37,2013-06-12 11:43:00,
2013-06-12 07:48:00,64.1,63.2,30.01,West,281,0.0,0.0,97,0.00,CLR,,0.00,WeatherDisplay:10.37,2013-06-12 11:48:00,
2013-06-12 07:53:00,64.3,63.4,30.01,West,281,0.0,0.0,97,0.00,CLR,,0.00,WeatherDisplay:10.37,2013-06-12 11:53:00,
2013-06-12 07:58:00,64.4,63.5,30.02,West,281,0.0,0.0,97,0.00,CLR,,0.00,WeatherDisplay:10.37,2013-06-12 11:58:00,
2013-06-12 08:03:00,64.6,63.7,30.02,West,281,0.0,0.0,97,0.00,CLR,,0.00,WeatherDisplay:10.37,2013-06-12 12:03:00,
2013-06-12 08:08:00,64.7,63.8,30.02,West,281,0.0,0.0,97,0.00,CLR,,0.00,WeatherDisplay:10.37,2013-06-12 12:08:00,
2013-06-12 08:13:00,64.9,63.7,30.02,West,281,0.0,0.0,96,0.00,CLR,,0.00,WeatherDisplay:10.37,2013-06-12 12:13:00,
2013-06-12 08:18:00,64.9,63.7,30.02,West,281,0.0,0.0,96,0.00,CLR,,0.00,WeatherDisplay:10.37,2013-06-12 12:18:00,
2013-06-12 08:23:00,65.1,63.9,30.02,West,281,0.0,0.0,96,0.00,CLR,,0.00,WeatherDisplay:10.37,2013-06-12 12:23:00,
2013-06-12 08:28:00,65.2,64.0,30.02,West,281,0.0,0.0,96,0.00,CLR,,0.00,WeatherDisplay:10.37,2013-06-12 12:28:00,
2013-06-12 08:33:00,65.5,64.3,30.01,West,281,0.0,0.0,96,0.00,CLR,,0.00,WeatherDisplay:10.37,2013-06-12 12:33:00,
2013-06-12 08:38:00,66.0,64.8,30.01,West,281,1.2,0.0,96,0.00,CLR,,0.00,WeatherDisplay:10.37,2013-06-12 12:38:00,
2013-06-12 08:43:00,66.7,64.9,30.01,WSW,255,3.5,3.5,94,0.00,CLR,,0.00,WeatherDisplay:10.37,2013-06-12 12:43:00,
2013-06-12 08:48:00,67.5,65.4,30.01,WSW,255,2.0,2.0,93,0.00,CLR,,0.00,WeatherDisplay:10.37,2013-06-12 12:48:00,
2013-06-12 08:53:00,68.2,65.5,30.00,West,262,3.5,3.5,91,0.00,CLR,,0.00,WeatherDisplay:10.37,2013-06-12 12:53:00,
2013-06-12 08:58:00,68.8,65.7,30.00,WSW,255,2.3,2.4,90,0.00,CLR,,0.00,WeatherDisplay:10.37,2013-06-12 12:58:00,
2013-06-12 09:03:00,69.6,66.5,30.00,WSW,255,3.5,3.5,90,0.00,CLR,,0.00,WeatherDisplay:10.37,2013-06-12 13:03:00,
2013-06-12 09:08:00,70.7,67.3,30.00,West,271,1.2,1.2,89,0.00,CLR,,0.00,WeatherDisplay:10.37,2013-06-12 13:08:00,
2013-06-12 09:13:00,71.7,67.3,30.01,NW,314,3.5,3.5,86,0.00,CLR,,0.00,WeatherDisplay:10.37,2013-06-12 13:13:00,
2013-06-12 09:18:00,72.3,67.5,30.01,West,269,5.8,5.8,85,0.00,CLR,,0.00,WeatherDisplay:10.37,2013-06-12 13:18:00,
2013-06-12 09:23:00,72.8,67.7,30.01,WSW,256,6.9,6.9,84,0.00,CLR,,0.00,WeatherDisplay:10.37,2013-06-12 13:23:00,
2013-06-12 09:29:00,73.1,68.0,30.01,SW,235,4.0,4.2,84,0.00,CLR,,0.00,WeatherDisplay:10.37,2013-06-12 13:29:00,
2013-06-12 09:34:00,73.5,68.0,30.00,WNW,295,5.0,5.0,83,0.00,CLR,,0.00,WeatherDisplay:10.37,2013-06-12 13:34:00,
2013-06-12 09:39:00,73.9,68.1,30.00,WSW,257,5.8,5.8,82,0.00,CLR,,0.00,WeatherDisplay:10.37,2013-06-12 13:39:00,
2013-06-12 09:44:00,74.4,68.5,30.00,West,274,3.5,3.5,82,0.00,CLR,,0.00,WeatherDisplay:10.37,2013-06-12 13:44:00,
2013-06-12 09:49:00,74.7,68.1,30.00,WSW,255,8.1,8.1,80,0.00,CLR,,0.00,WeatherDisplay:10.37,2013-06-12 13:49:00,
2013-06-12 09:54:00,74.9,68.3,30.00,WSW,254,8.1,8.1,80,0.00,CLR,,0.00,WeatherDisplay:10.37,2013-06-12 13:54:00,
2013-06-12 09:59:00,75.4,68.4,30.00,West,259,4.6,4.6,79,0.00,CLR,,0.00,WeatherDisplay:10.37,2013-06-12 13:59:00,
2013-06-12 10:04:00,75.9,68.9,29.99,WSW,257,6.9,6.9,79,0.00,CLR,,0.00,WeatherDisplay:10.37,2013-06-12 14:04:00,
2013-06-12 10:09:00,76.4,69.0,29.99,West,267,4.6,4.6,78,0.00,CLR,,0.00,WeatherDisplay:10.37,2013-06-12 14:09:00,
2013-06-12 10:14:00,76.9,69.1,29.99,West,269,6.9,6.9,77,0.00,CLR,,0.00,WeatherDisplay:10.37,2013-06-12 14:14:00,
2013-06-12 10:19:00,77.4,69.6,29.99,SW,228,8.1,8.1,77,0.00,CLR,,0.00,WeatherDisplay:10.37,2013-06-12 14:19:00,
2013-06-12 10:24:00,77.8,70.4,29.99,West,260,5.0,5.0,78,0.00,CLR,,0.00,WeatherDisplay:10.37,2013-06-12 14:24:00,
2013-06-12 10:29:00,78.6,70.8,29.99,WSW,245,4.0,4.0,77,0.00,CLR,,0.00,WeatherDisplay:10.37,2013-06-12 14:29:00,
2013-06-12 10:34:00,79.2,71.0,29.99,WSW,243,5.8,5.8,76,0.00,CLR,,0.00,WeatherDisplay:10.37,2013-06-12 14:34:00,
2013-06-12 10:39:00,79.5,70.5,29.99,WNW,286,8.1,8.1,74,0.00,CLR,,0.00,WeatherDisplay:10.37,2013-06-12 14:39:00,
2013-06-12 10:44:00,79.8,70.8,29.99,WSW,245,5.8,5.8,74,0.00,CLR,,0.00,WeatherDisplay:10.37,2013-06-12 14:44:00,
2013-06-12 10:49:00,79.9,70.9,29.99,WSW,255,5.8,5.8,74,0.00,CLR,,0.00,WeatherDisplay:10.37,2013-06-12 14:49:00,
2013-06-12 10:54:00,80.2,71.6,29.98,NW,324,8.1,8.1,75,0.00,CLR,,0.00,WeatherDisplay:10.37,2013-06-12 14:54:00,
2013-06-12 10:59:00,80.7,71.2,29.98,SW,227,10.4,10.4,73,0.00,CLR,,0.00,WeatherDisplay:10.37,2013-06-12 14:59:00,
2013-06-12 11:04:00,81.0,71.5,29.98,NW,306,11.5,11.5,73,0.00,CLR,,0.00,WeatherDisplay:10.37,2013-06-12 15:04:00,
2013-06-12 11:09:00,81.4,72.3,29.98,NW,319,8.1,8.1,74,0.00,CLR,,0.00,WeatherDisplay:10.37,2013-06-12 15:09:00,
2013-06-12 11:14:00,81.5,71.6,29.98,West,263,12.7,12.7,72,0.00,CLR,,0.00,WeatherDisplay:10.37,2013-06-12 15:14:00,
2013-06-12 11:19:00,81.6,72.5,29.98,West,279,6.9,6.9,74,0.00,CLR,,0.00,WeatherDisplay:10.37,2013-06-12 15:19:00,
2013-06-12 11:24:00,82.1,72.2,29.98,SW,225,9.2,9.2,72,0.00,CLR,,0.00,WeatherDisplay:10.37,2013-06-12 15:24:00,
2013-06-12 11:29:00,82.0,72.1,29.98,West,271,6.9,6.9,72,0.00,CLR,,0.00,WeatherDisplay:10.37,2013-06-12 15:29:00,
2013-06-12 11:34:00,82.3,72.4,29.98,WSW,243,6.9,6.9,72,0.00,CLR,,0.00,WeatherDisplay:10.37,2013-06-12 15:34:00,
2013-06-12 11:39:00,82.5,72.6,29.98,NW,324,8.1,8.1,72,0.00,CLR,,0.00,WeatherDisplay:10.37,2013-06-12 15:39:00,
2013-06-12 11:44:00,82.7,72.3,29.98,WSW,248,6.9,6.9,71,0.00,CLR,,0.00,WeatherDisplay:10.37,2013-06-12 15:44:00,
2013-06-12 11:49:00,83.2,72.8,29.98,WSW,242,6.9,6.9,71,0.00,CLR,,0.00,WeatherDisplay:10.37,2013-06-12 15:49:00,
2013-06-12 11:54:00,83.8,73.8,29.98,SW,235,3.5,3.5,72,0.00,CLR,,0.00,WeatherDisplay:10.37,2013-06-12 15:54:00,
2013-06-12 11:59:00,83.5,72.7,29.98,West,281,4.6,4.6,70,0.00,CLR,,0.00,WeatherDisplay:10.37,2013-06-12 15:59:00,
2013-06-12 12:04:00,83.3,73.3,29.98,West,263,3.5,3.5,72,0.00,CLR,,0.00,WeatherDisplay:10.37,2013-06-12 16:04:00,
2013-06-12 12:09:00,82.7,72.3,29.98,West,262,9.2,9.2,71,0.00,CLR,,0.00,WeatherDisplay:10.37,2013-06-12 16:09:00,
2013-06-12 12:14:00,82.5,72.6,29.98,WNW,302,4.6,4.6,72,0.00,CLR,,0.00,WeatherDisplay:10.37,2013-06-12 16:14:00,
2013-06-12 12:19:00,83.1,73.1,29.97,WNW,300,6.9,6.9,72,0.00,CLR,,0.00,WeatherDisplay:10.37,2013-06-12 16:19:00,
2013-06-12 12:24:00,83.6,73.6,29.97,WSW,258,11.5,11.5,72,0.00,CLR,,0.00,WeatherDisplay:10.37,2013-06-12 16:24:00,
2013-06-12 12:29:00,84.5,73.2,29.97,WSW,237,13.0,13.0,69,0.00,CLR,,0.00,WeatherDisplay:10.37,2013-06-12 16:29:00,
2013-06-12 12:34:00,84.7,72.5,29.97,West,263,11.5,11.5,67,0.00,CLR,,0.00,WeatherDisplay:10.37,2013-06-12 16:34:00,
2013-06-12 12:39:00,84.1,72.8,29.97,WNW,288,8.1,8.1,69,0.00,CLR,,0.00,WeatherDisplay:10.37,2013-06-12 16:39:00,
2013-06-12 12:44:00,83.7,72.4,29.97,West,275,13.8,13.8,69,0.00,CLR,,0.00,WeatherDisplay:10.37,2013-06-12 16:44:00,
2013-06-12 12:49:00,83.7,72.4,29.97,WSW,249,6.9,6.9,69,0.00,CLR,,0.00,WeatherDisplay:10.37,2013-06-12 16:49:00,
2013-06-12 12:54:00,83.7,72.9,29.97,West,263,4.0,4.0,70,0.00,CLR,,0.00,WeatherDisplay:10.37,2013-06-12 16:54:00,
2013-06-12 12:59:00,83.9,72.6,29.97,WSW,257,5.8,5.8,69,0.00,CLR,,0.00,WeatherDisplay:10.37,2013-06-12 16:59:00,
2013-06-12 13:04:00,83.8,72.5,29.97,West,271,9.2,9.2,69,0.00,CLR,,0.00,WeatherDisplay:10.37,2013-06-12 17:04:00,
2013-06-12 13:09:00,83.7,72.9,29.97,WSW,257,6.0,6.0,70,0.00,CLR,,0.00,WeatherDisplay:10.37,2013-06-12 17:09:00,
2013-06-12 13:14:00,83.6,72.3,29.98,West,271,11.5,11.5,69,0.00,CLR,,0.00,WeatherDisplay:10.37,2013-06-12 17:14:00,
2013-06-12 13:19:00,83.6,73.2,29.97,WSW,256,6.0,6.0,71,0.00,CLR,,0.00,WeatherDisplay:10.37,2013-06-12 17:19:00,
2013-06-12 13:24:00,83.6,72.8,29.97,West,262,5.8,5.8,70,0.00,CLR,,0.00,WeatherDisplay:10.37,2013-06-12 17:24:00,
2013-06-12 13:29:00,84.3,73.9,29.97,WSW,247,4.6,4.6,71,0.00,CLR,,0.00,WeatherDisplay:10.37,2013-06-12 17:29:00,
2013-06-12 13:34:00,84.6,72.4,29.96,SW,232,10.4,10.4,67,0.00,CLR,,0.00,WeatherDisplay:10.37,2013-06-12 17:34:00,
2013-06-12 13:39:00,84.8,73.5,29.96,WSW,244,8.0,8.0,69,0.00,CLR,,0.00,WeatherDisplay:10.37,2013-06-12 17:39:00,
2013-06-12 13:44:00,84.6,72.9,29.97,WSW,248,11.5,11.5,68,0.00,CLR,,0.00,WeatherDisplay:10.37,2013-06-12 17:44:00,
2013-06-12 13:49:00,85.1,73.3,29.96,SW,234,8.1,8.1,68,0.00,CLR,,0.00,WeatherDisplay:10.37,2013-06-12 17:49:00,
2013-06-12 13:54:00,85.8,73.6,29.96,West,274,6.9,6.9,67,0.00,CLR,,0.00,WeatherDisplay:10.37,2013-06-12 17:54:00,
2013-06-12 13:59:00,86.0,73.8,29.96,NW,317,4.6,4.6,67,0.00,CLR,,0.00,WeatherDisplay:10.37,2013-06-12 17:59:00,
2013-06-12 14:04:00,86.6,75.2,29.96,WNW,282,11.5,11.5,69,0.00,CLR,,0.00,WeatherDisplay:10.37,2013-06-12 18:04:00,
2013-06-12 14:09:00,86.4,73.2,29.96,WSW,250,4.6,4.6,65,0.00,CLR,,0.00,WeatherDisplay:10.37,2013-06-12 18:09:00,
2013-06-12 14:14:00,86.0,72.9,29.96,WSW,248,9.2,9.2,65,0.00,CLR,,0.00,WeatherDisplay:10.37,2013-06-12 18:14:00,
2013-06-12 14:19:00,86.3,72.7,29.96,WSW,237,4.6,4.6,64,0.00,CLR,,0.00,WeatherDisplay:10.37,2013-06-12 18:19:00,
2013-06-12 14:24:00,86.4,72.8,29.96,West,267,9.2,9.2,64,0.00,CLR,,0.00,WeatherDisplay:10.37,2013-06-12 18:24:00,
2013-06-12 14:29:00,86.7,73.5,29.96,WSW,245,5.8,5.8,65,0.00,CLR,,0.00,WeatherDisplay:10.37,2013-06-12 18:29:00,
2013-06-12 14:34:00,87.3,73.6,29.95,West,259,8.1,8.1,64,0.00,CLR,,0.00,WeatherDisplay:10.37,2013-06-12 18:34:00,
2013-06-12 14:39:00,87.4,74.6,29.95,NW,309,6.9,6.9,66,0.00,CLR,,0.00,WeatherDisplay:10.37,2013-06-12 18:39:00,
2013-06-12 14:44:00,87.4,73.3,29.95,West,281,6.9,6.9,63,0.00,CLR,,0.00,WeatherDisplay:10.37,2013-06-12 18:44:00,
2013-06-12 14:49:00,87.3,73.2,29.95,WSW,244,11.5,11.5,63,0.00,CLR,,0.00,WeatherDisplay:10.37,2013-06-12 18:49:00,
2013-06-12 14:54:00,87.5,73.3,29.95,WNW,300,6.9,6.9,63,0.00,CLR,,0.00,WeatherDisplay:10.37,2013-06-12 18:54:00,
2013-06-12 14:59:00,87.5,73.3,29.94,SW,233,8.1,8.1,63,0.00,CLR,,0.00,WeatherDisplay:10.37,2013-06-12 18:59:00,
2013-06-12 15:04:00,87.9,73.7,29.94,West,274,9.2,9.2,63,0.00,CLR,,0.00,WeatherDisplay:10.37,2013-06-12 19:04:00,
2013-06-12 15:09:00,88.3,74.1,29.94,WSW,255,5.8,5.8,63,0.00,CLR,,0.00,WeatherDisplay:10.37,2013-06-12 19:09:00,
2013-06-12 15:14:00,88.3,73.1,29.93,WSW,257,6.9,6.9,61,0.00,CLR,,0.00,WeatherDisplay:10.37,2013-06-12 19:14:00,
2013-06-12 15:19:00,88.5,72.8,29.93,West,262,6.0,6.0,60,0.00,CLR,,0.00,WeatherDisplay:10.37,2013-06-12 19:19:00,
2013-06-12 15:24:00,88.6,73.4,29.93,West,281,10.4,10.4,61,0.00,CLR,,0.00,WeatherDisplay:10.37,2013-06-12 19:24:00,
2013-06-12 15:30:00,88.3,72.7,29.93,SW,224,10.4,10.4,60,0.00,CLR,,0.00,WeatherDisplay:10.37,2013-06-12 19:30:00,
2013-06-12 15:35:00,88.1,72.0,29.92,WSW,248,8.1,8.1,59,0.00,CLR,,0.00,WeatherDisplay:10.37,2013-06-12 19:35:00,
2013-06-12 15:40:00,88.2,71.6,29.92,WSW,241,6.9,6.9,58,0.00,CLR,,0.00,WeatherDisplay:10.37,2013-06-12 19:40:00,
2013-06-12 15:45:00,88.5,73.8,29.92,WSW,257,4.6,4.6,62,0.00,CLR,,0.00,WeatherDisplay:10.37,2013-06-12 19:45:00,
2013-06-12 15:50:00,88.7,73.5,29.92,WSW,255,8.1,8.1,61,0.00,CLR,,0.00,WeatherDisplay:10.37,2013-06-12 19:50:00,
2013-06-12 15:55:00,88.4,71.7,29.93,West,270,10.4,10.4,58,0.00,CLR,,0.00,WeatherDisplay:10.37,2013-06-12 19:55:00,
2013-06-12 16:00:00,88.4,73.7,29.92,NW,316,10.4,10.4,62,0.00,CLR,,0.00,WeatherDisplay:10.37,2013-06-12 20:00:00,
2013-06-12 16:05:00,88.4,73.7,29.92,West,265,6.0,9.0,62,0.00,,,0.00,WeatherDisplay:10.37,2013-06-12 20:05:00,
2013-06-12 16:10:00,88.6,71.9,29.92,WSW,248,5.0,5.0,58,0.00,,,0.00,WeatherDisplay:10.37,2013-06-12 20:10:00,
2013-06-12 16:15:00,89.1,74.4,29.91,West,273,2.0,8.0,62,0.00,,,0.00,WeatherDisplay:10.37,2013-06-12 20:15:00,
2013-06-12 16:20:00,89.1,72.9,29.91,West,275,5.8,5.8,59,0.00,,,0.00,WeatherDisplay:10.37,2013-06-12 20:20:00,
2013-06-12 16:25:00,88.8,72.1,29.91,West,263,6.0,13.0,58,0.00,,,0.00,WeatherDisplay:10.37,2013-06-12 20:25:00,
2013-06-12 16:30:00,88.6,72.4,29.90,WSW,254,6.0,12.0,59,0.00,,,0.00,WeatherDisplay:10.37,2013-06-12 20:30:00,
2013-06-12 16:35:00,88.5,72.3,29.90,WSW,249,4.6,4.6,59,0.00,,,0.00,WeatherDisplay:10.37,2013-06-12 20:35:00,
2013-06-12 16:40:00,88.6,73.4,29.90,WSW,258,6.0,10.0,61,0.00,,,0.00,WeatherDisplay:10.37,2013-06-12 20:40:00,
2013-06-12 16:45:00,88.2,73.0,29.90,WSW,247,8.1,8.1,61,0.00,,,0.00,WeatherDisplay:10.37,2013-06-12 20:45:00,
2013-06-12 16:50:00,87.9,72.8,29.90,WSW,250,6.0,13.0,61,0.00,,,0.00,WeatherDisplay:10.37,2013-06-12 20:50:00,
2013-06-12 16:55:00,87.6,72.5,29.90,WSW,251,6.0,12.0,61,0.00,,,0.00,WeatherDisplay:10.37,2013-06-12 20:55:00,
2013-06-12 17:00:00,87.8,72.2,29.90,SW,232,8.1,8.1,60,0.00,,,0.00,WeatherDisplay:10.37,2013-06-12 21:00:00,
2013-06-12 17:05:00,87.9,72.8,29.90,WSW,256,5.8,5.8,61,0.00,,,0.00,WeatherDisplay:10.37,2013-06-12 21:05:00,
2013-06-12 17:10:00,88.0,73.3,29.90,WSW,257,3.0,7.0,62,0.00,,,0.00,WeatherDisplay:10.37,2013-06-12 21:10:00,
2013-06-12 17:15:00,87.7,72.6,29.90,West,265,9.0,9.0,61,0.00,,,0.00,WeatherDisplay:10.37,2013-06-12 21:15:00,
2013-06-12 17:20:00,87.5,71.9,29.90,West,265,5.0,12.0,60,0.00,,,0.00,WeatherDisplay:10.37,2013-06-12 21:20:00,
2013-06-12 17:25:00,87.4,72.8,29.90,West,279,11.5,11.5,62,0.00,,,0.00,WeatherDisplay:10.37,2013-06-12 21:25:00,
2013-06-12 17:30:00,87.8,72.7,29.90,WSW,242,6.9,6.9,61,0.00,,,0.00,WeatherDisplay:10.37,2013-06-12 21:30:00,
2013-06-12 17:35:00,87.8,72.7,29.90,WSW,255,3.0,8.0,61,0.00,,,0.00,WeatherDisplay:10.37,2013-06-12 21:35:00,
2013-06-12 17:40:00,87.9,72.8,29.90,West,266,6.0,6.0,61,0.00,,,0.00,WeatherDisplay:10.37,2013-06-12 21:40:00,
2013-06-12 17:45:00,87.8,72.7,29.90,WSW,246,4.0,4.0,61,0.00,,,0.00,WeatherDisplay:10.37,2013-06-12 21:45:00,
2013-06-12 17:50:00,87.8,72.2,29.90,WSW,250,6.0,8.0,60,0.00,,,0.00,WeatherDisplay:10.37,2013-06-12 21:50:00,
2013-06-12 17:55:00,87.8,72.6,29.89,West,260,2.0,7.0,61,0.00,,,0.00,WeatherDisplay:10.37,2013-06-12 21:55:00,
2013-06-12 18:00:00,87.7,73.5,29.89,WNW,283,4.6,4.6,63,0.00,,,0.00,WeatherDisplay:10.37,2013-06-12 22:00:00,
2013-06-12 18:05:00,87.7,73.5,29.89,West,267,5.0,8.0,63,0.00,,,0.00,WeatherDisplay:10.37,2013-06-12 22:05:00,
2013-06-12 18:10:00,87.5,73.3,29.89,WNW,293,4.6,4.6,63,0.00,,,0.00,WeatherDisplay:10.37,2013-06-12 22:10:00,
2013-06-12 18:15:00,87.5,73.3,29.89,West,261,3.5,3.5,63,0.00,,,0.00,WeatherDisplay:10.37,2013-06-12 22:15:00,
2013-06-12 18:20:00,87.7,73.5,29.89,West,262,5.0,9.0,63,0.00,,,0.00,WeatherDisplay:10.37,2013-06-12 22:20:00,
2013-06-12 18:25:00,87.7,73.5,29.88,WSW,249,4.6,4.6,63,0.00,,,0.00,WeatherDisplay:10.37,2013-06-12 22:25:00,
2013-06-12 18:30:00,87.5,73.3,29.88,WSW,257,3.5,3.5,63,0.00,,,0.00,WeatherDisplay:10.37,2013-06-12 22:30:00,
2013-06-12 18:35:00,87.4,73.7,29.88,WSW,242,2.0,5.0,64,0.00,,,0.00,WeatherDisplay:10.37,2013-06-12 22:35:00,
2013-06-12 18:40:00,87.4,73.3,29.88,WSW,249,3.0,9.0,63,0.00,,,0.00,WeatherDisplay:10.37,2013-06-12 22:40:00,
2013-06-12 18:45:00,87.1,73.4,29.87,WSW,247,3.0,8.0,64,0.00,,,0.00,WeatherDisplay:10.37,2013-06-12 22:45:00,
2013-06-12 18:50:00,87.1,73.9,29.87,WSW,253,4.6,4.6,65,0.00,,,0.00,WeatherDisplay:10.37,2013-06-12 22:50:00,
2013-06-12 18:55:00,87.4,74.6,29.87,SSW,201,2.3,2.4,66,0.00,,,0.00,WeatherDisplay:10.37,2013-06-12 22:55:00,
2013-06-12 19:00:00,87.3,74.1,29.87,West,262,3.0,6.0,65,0.00,,,0.00,WeatherDisplay:10.37,2013-06-12 23:00:00,
2013-06-12 19:05:00,86.8,74.1,29.87,WSW,248,8.0,8.0,66,0.00,,,0.00,WeatherDisplay:10.37,2013-06-12 23:05:00,
2013-06-12 19:10:00,86.2,74.0,29.87,WSW,238,3.5,3.5,67,0.00,,,0.00,WeatherDisplay:10.37,2013-06-12 23:10:00,
2013-06-12 19:15:00,85.9,74.1,29.87,SW,233,5.0,5.0,68,0.00,,,0.00,WeatherDisplay:10.37,2013-06-12 23:15:00,
2013-06-12 19:20:00,85.8,74.0,29.86,SW,219,2.3,2.3,68,0.00,,,0.00,WeatherDisplay:10.37,2013-06-12 23:20:00,
2013-06-12 19:25:00,85.9,74.1,29.86,WSW,244,2.0,6.0,68,0.00,,,0.00,WeatherDisplay:10.37,2013-06-12 23:25:00,
2013-06-12 19:30:00,85.8,74.0,29.86,WSW,246,1.0,5.0,68,0.00,,,0.00,WeatherDisplay:10.37,2013-06-12 23:30:00,
2013-06-12 19:35:00,85.9,73.7,29.87,SW,236,10.4,10.4,67,0.00,,,0.00,WeatherDisplay:10.37,2013-06-12 23:35:00,
2013-06-12 19:40:00,85.7,73.5,29.87,WSW,258,5.0,7.0,67,0.00,,,0.00,WeatherDisplay:10.37,2013-06-12 23:40:00,
2013-06-12 19:45:00,85.5,73.3,29.87,West,259,2.0,8.0,67,0.00,,,0.00,WeatherDisplay:10.37,2013-06-12 23:45:00,
2013-06-12 19:50:00,85.2,72.6,29.87,WSW,242,4.6,4.6,66,0.00,,,0.00,WeatherDisplay:10.37,2013-06-12 23:50:00,
2013-06-12 19:55:00,85.0,72.4,29.87,WSW,250,2.0,10.0,66,0.00,,,0.00,WeatherDisplay:10.37,2013-06-12 23:55:00,
2013-06-12 20:00:00,84.7,72.1,29.87,WSW,255,4.6,4.6,66,0.00,,,0.00,WeatherDisplay:10.37,2013-06-13 00:00:00,
2013-06-12 20:05:00,84.4,71.8,29.87,WSW,256,10.4,10.4,66,0.00,CLR,,0.00,WeatherDisplay:10.37,2013-06-13 00:05:00,
2013-06-12 20:10:00,84.1,72.0,29.87,WSW,253,5.0,12.0,67,0.00,CLR,,0.00,WeatherDisplay:10.37,2013-06-13 00:10:00,
2013-06-12 20:15:00,83.7,72.0,29.87,WSW,254,9.2,9.2,68,0.00,CLR,,0.00,WeatherDisplay:10.37,2013-06-13 00:15:00,
2013-06-12 20:20:00,83.3,72.1,29.88,WSW,255,6.9,6.9,69,0.00,CLR,,0.00,WeatherDisplay:10.37,2013-06-13 00:20:00,
2013-06-12 20:25:00,82.9,72.1,29.88,WSW,254,2.0,10.0,70,0.00,CLR,,0.00,WeatherDisplay:10.37,2013-06-13 00:25:00,
2013-06-12 20:30:00,82.5,72.1,29.88,WSW,242,6.0,6.0,71,0.00,CLR,,0.00,WeatherDisplay:10.37,2013-06-13 00:30:00,
2013-06-12 20:35:00,82.1,72.2,29.88,WSW,256,5.0,8.0,72,0.00,CLR,,0.00,WeatherDisplay:10.37,2013-06-13 00:35:00,
2013-06-12 20:40:00,81.7,72.2,29.88,WSW,257,2.0,7.0,73,0.00,CLR,,0.00,WeatherDisplay:10.37,2013-06-13 00:40:00,
2013-06-12 20:45:00,81.4,72.3,29.88,West,264,3.5,3.5,74,0.00,CLR,,0.00,WeatherDisplay:10.37,2013-06-13 00:45:00,
2013-06-12 20:50:00,81.0,72.4,29.88,WSW,256,2.0,8.0,75,0.00,CLR,,0.00,WeatherDisplay:10.37,2013-06-13 00:50:00,
2013-06-12 20:55:00,80.8,72.5,29.87,WSW,255,2.0,5.0,76,0.00,CLR,,0.00,WeatherDisplay:10.37,2013-06-13 00:55:00,
2013-06-12 21:00:00,80.5,72.6,29.87,WSW,254,1.0,5.0,77,0.00,,,0.00,WeatherDisplay:10.37,2013-06-13 01:00:00,
2013-06-12 21:05:00,80.3,72.4,29.87,WSW,254,2.0,5.0,77,0.00,,,0.00,WeatherDisplay:10.37,2013-06-13 01:05:00,
2013-06-12 21:10:00,80.2,72.3,29.87,WSW,255,2.0,6.0,77,0.00,,,0.00,WeatherDisplay:10.37,2013-06-13 01:10:00,
2013-06-12 21:15:00,79.9,72.4,29.87,WSW,254,4.0,4.0,78,0.00,,,0.00,WeatherDisplay:10.37,2013-06-13 01:15:00,
2013-06-12 21:20:00,79.8,72.3,29.87,West,261,2.0,6.0,78,0.00,,,0.00,WeatherDisplay:10.37,2013-06-13 01:20:00,
2013-06-12 21:25:00,79.7,72.2,29.87,SW,235,4.6,4.6,78,0.00,,,0.00,WeatherDisplay:10.37,2013-06-13 01:25:00,
2013-06-12 21:30:00,79.6,72.1,29.87,West,264,3.5,3.5,78,0.00,,,0.00,WeatherDisplay:10.37,2013-06-13 01:30:00,
2013-06-12 21:35:00,79.6,72.1,29.87,WSW,253,5.0,9.0,78,0.00,,,0.00,WeatherDisplay:10.37,2013-06-13 01:35:00,
2013-06-12 21:40:00,79.5,72.0,29.87,SW,224,3.5,3.5,78,0.00,,,0.00,WeatherDisplay:10.37,2013-06-13 01:40:00,
2013-06-12 21:45:00,79.5,71.7,29.87,WSW,245,2.0,10.0,77,0.00,,,0.00,WeatherDisplay:10.37,2013-06-13 01:45:00,
2013-06-12 21:50:00,79.5,71.7,29.87,WSW,245,2.0,7.0,77,0.00,,,0.00,WeatherDisplay:10.37,2013-06-13 01:50:00,
2013-06-12 21:55:00,79.4,71.6,29.87,West,262,11.5,11.5,77,0.00,,,0.00,WeatherDisplay:10.37,2013-06-13 01:55:00,
2013-06-12 22:00:00,79.3,71.5,29.87,WSW,251,1.0,6.0,77,0.00,,,0.00,WeatherDisplay:10.37,2013-06-13 02:00:00,
2013-06-12 22:05:00,79.2,71.7,29.88,SSW,213,4.6,4.6,78,0.00,,,0.00,WeatherDisplay:10.37,2013-06-13 02:05:00,
2013-06-12 22:10:00,79.0,71.6,29.88,West,263,5.8,5.8,78,0.00,,,0.00,WeatherDisplay:10.37,2013-06-13 02:10:00,
2013-06-12 22:15:00,79.0,71.6,29.88,WSW,250,1.0,7.0,78,0.00,,,0.00,WeatherDisplay:10.37,2013-06-13 02:15:00,
2013-06-12 22:20:00,78.8,71.4,29.88,WSW,245,8.1,8.1,78,0.00,,,0.00,WeatherDisplay:10.37,2013-06-13 02:20:00,
2013-06-12 22:25:00,78.8,71.4,29.88,WSW,258,0.0,6.0,78,0.00,,,0.00,WeatherDisplay:10.37,2013-06-13 02:25:00,
2013-06-12 22:30:00,78.6,71.2,29.88,WSW,242,4.6,4.6,78,0.00,,,0.00,WeatherDisplay:10.37,2013-06-13 02:30:00,
2013-06-12 22:35:00,78.5,71.1,29.88,West,263,4.0,4.0,78,0.00,,,0.00,WeatherDisplay:10.37,2013-06-13 02:35:00,
2013-06-12 22:40:00,78.5,71.1,29.88,WSW,245,1.0,7.0,78,0.00,,,0.00,WeatherDisplay:10.37,2013-06-13 02:40:00,
2013-06-12 22:45:00,78.4,70.9,29.88,WSW,242,3.0,9.0,78,0.00,,,0.00,WeatherDisplay:10.37,2013-06-13 02:45:00,
2013-06-12 22:50:00,78.2,70.8,29.88,WSW,247,6.0,6.0,78,0.00,,,0.00,WeatherDisplay:10.37,2013-06-13 02:50:00,
2013-06-12 22:55:00,78.1,70.7,29.88,WSW,255,3.0,7.0,78,0.00,,,0.00,WeatherDisplay:10.37,2013-06-13 02:55:00,
2013-06-12 23:00:00,78.1,70.7,29.88,West,259,1.0,3.0,78,0.00,,,0.00,WeatherDisplay:10.37,2013-06-13 03:00:00,
2013-06-12 23:05:00,77.8,70.4,29.88,West,267,3.5,3.5,78,0.00,,,0.00,WeatherDisplay:10.37,2013-06-13 03:05:00,
2013-06-12 23:10:00,77.7,70.7,29.88,WSW,255,3.5,3.5,79,0.00,,,0.00,WeatherDisplay:10.37,2013-06-13 03:10:00,
2013-06-12 23:15:00,77.6,70.6,29.88,WSW,252,3.0,8.0,79,0.00,,,0.00,WeatherDisplay:10.37,2013-06-13 03:15:00,
2013-06-12 23:20:00,77.6,70.6,29.88,WSW,252,5.0,5.0,79,0.00,,,0.00,WeatherDisplay:10.37,2013-06-13 03:20:00,
2013-06-12 23:25:00,77.5,70.5,29.88,WSW,255,8.1,8.1,79,0.00,,,0.00,WeatherDisplay:10.37,2013-06-13 03:25:00,
2013-06-12 23:30:00,77.5,70.5,29.88,West,267,4.0,4.4,79,0.00,,,0.00,WeatherDisplay:10.37,2013-06-13 03:30:00,
2013-06-12 23:35:00,77.4,70.4,29.87,West,259,5.0,12.0,79,0.00,,,0.00,WeatherDisplay:10.37,2013-06-13 03:35:00,
2013-06-12 23:40:00,77.4,70.4,29.87,WSW,254,5.0,8.0,79,0.00,,,0.00,WeatherDisplay:10.37,2013-06-13 03:40:00,
2013-06-12 23:45:00,77.3,70.3,29.87,WSW,250,5.0,5.0,79,0.00,,,0.00,WeatherDisplay:10.37,2013-06-13 03:45:00,
2013-06-12 23:50:00,77.3,70.3,29.87,WSW,248,3.5,3.5,79,0.00,,,0.00,WeatherDisplay:10.37,2013-06-13 03:50:00,
2013-06-12 23:55:00,77.1,70.1,29.86,WSW,254,1.0,7.0,79,0.00,,,0.00,WeatherDisplay:10.37,2013-06-13 03:55:00,